createdAt,value
2019-05-17T00:00:16.785Z,14.13
2019-05-17T00:02:48.480Z,14.93
2019-05-17T00:05:19.017Z,15.97
2019-05-17T00:07:49.562Z,14.77
2019-05-17T00:10:20.108Z,14.57
2019-05-17T00:12:50.994Z,15.27
2019-05-17T00:15:21.558Z,16.87
2019-05-17T00:17:53.070Z,16.90
2019-05-17T00:20:26.459Z,16.63
2019-05-17T00:22:57.347Z,15.07
2019-05-17T00:25:28.113Z,15.10
2019-05-17T00:27:58.686Z,14.70
2019-05-17T00:30:29.282Z,15.10
2019-05-17T00:32:59.739Z,15.40
2019-05-17T00:35:30.882Z,15.37
2019-05-17T00:38:01.408Z,14.93
2019-05-17T00:40:36.690Z,16.03
2019-05-17T00:43:07.515Z,16.37
2019-05-17T00:45:38.108Z,16.03
2019-05-17T00:48:10.102Z,16.03
2019-05-17T00:50:40.615Z,15.57
2019-05-17T00:53:11.374Z,15.87
2019-05-17T00:55:41.876Z,15.13
2019-05-17T00:58:12.449Z,16.00
2019-05-17T01:00:42.943Z,17.40
2019-05-17T01:03:13.405Z,18.60
2019-05-17T01:05:43.928Z,19.97
2019-05-17T01:08:14.394Z,21.23
2019-05-17T01:10:47.523Z,19.33
2019-05-17T01:13:18.212Z,17.03
2019-05-17T01:15:48.962Z,17.27
2019-05-17T01:18:19.421Z,16.60
2019-05-17T01:20:49.957Z,17.57
2019-05-17T01:23:20.431Z,16.90
2019-05-17T01:25:51.218Z,17.47
2019-05-17T01:28:21.872Z,16.53
2019-05-17T01:30:52.388Z,16.43
2019-05-17T01:33:23.221Z,16.90
2019-05-17T01:35:53.744Z,17.57
2019-05-17T01:38:26.774Z,16.93
2019-05-17T01:40:56.541Z,17.63
2019-05-17T01:43:27.462Z,16.40
2019-05-17T01:45:58.343Z,18.47
2019-05-17T01:48:29.376Z,20.47
2019-05-17T01:50:59.882Z,22.00
2019-05-17T01:53:30.407Z,21.57
2019-05-17T01:56:01.012Z,20.50
2019-05-17T01:58:31.624Z,18.37
2019-05-17T02:01:02.192Z,13.10
2019-05-17T02:03:32.679Z,14.33
2019-05-17T02:06:03.362Z,14.93
2019-05-17T02:08:33.861Z,15.70
2019-05-17T02:11:06.658Z,16.80
2019-05-17T02:13:37.857Z,16.57
2019-05-17T02:16:08.422Z,16.50
2019-05-17T02:18:38.930Z,16.03
2019-05-17T02:21:09.831Z,14.20
2019-05-17T02:23:40.405Z,12.90
2019-05-17T02:26:11.079Z,14.47
2019-05-17T02:28:41.573Z,12.00
2019-05-17T02:31:13.294Z,12.77
2019-05-17T02:33:44.614Z,13.20
2019-05-17T02:36:15.115Z,13.53
2019-05-17T02:38:45.640Z,13.53
2019-05-17T02:41:16.099Z,14.13
2019-05-17T02:43:46.636Z,13.43
2019-05-17T02:46:17.321Z,13.90
2019-05-17T02:48:47.915Z,13.27
2019-05-17T02:51:18.413Z,13.77
2019-05-17T02:53:48.975Z,13.77
2019-05-17T02:56:19.425Z,17.00
2019-05-17T02:58:53.331Z,16.20
2019-05-17T03:01:23.327Z,15.67
2019-05-17T03:03:55.030Z,15.30
2019-05-17T03:06:25.548Z,16.83
2019-05-17T03:08:56.013Z,13.83
2019-05-17T03:11:26.492Z,12.53
2019-05-17T03:13:59.434Z,14.13
2019-05-17T03:16:33.579Z,14.00
2019-05-17T03:19:04.156Z,14.77
2019-05-17T03:21:34.528Z,15.53
2019-05-17T03:24:05.559Z,14.83
2019-05-17T03:26:36.415Z,16.23
2019-05-17T03:29:06.883Z,16.83
2019-05-17T03:31:44.825Z,15.57
2019-05-17T03:34:16.930Z,14.60
2019-05-17T03:36:46.857Z,14.23
2019-05-17T03:39:15.521Z,15.73
2019-05-17T03:41:46.005Z,14.83
2019-05-17T03:44:16.810Z,14.83
2019-05-17T03:46:47.292Z,15.40
2019-05-17T03:49:17.895Z,14.30
2019-05-17T03:51:53.167Z,14.30
2019-05-17T03:54:24.455Z,15.17
2019-05-17T03:56:54.950Z,15.23
2019-05-17T03:59:25.441Z,14.70
2019-05-17T04:01:56.338Z,14.50
2019-05-17T04:04:26.947Z,14.90
2019-05-17T04:06:57.517Z,15.60
2019-05-17T04:09:32.873Z,15.80
2019-05-17T04:12:03.110Z,17.90
2019-05-17T04:14:33.782Z,17.80
2019-05-17T04:17:04.502Z,16.30
2019-05-17T04:19:35.028Z,14.57
2019-05-17T04:22:05.481Z,16.23
2019-05-17T04:24:36.081Z,15.30
2019-05-17T04:27:06.812Z,16.07
2019-05-17T04:29:37.380Z,14.83
2019-05-17T04:32:07.890Z,16.10
2019-05-17T04:34:38.464Z,18.37
2019-05-17T04:37:08.996Z,19.07
2019-05-17T04:39:39.569Z,18.93
2019-05-17T04:42:13.354Z,19.43
2019-05-17T04:44:43.197Z,19.47
2019-05-17T04:47:13.947Z,21.57
2019-05-17T04:49:44.449Z,22.50
2019-05-17T04:52:14.909Z,23.70
2019-05-17T04:54:45.695Z,23.50
2019-05-17T04:57:16.349Z,25.57
2019-05-17T04:59:47.366Z,27.10
2019-05-17T05:02:17.920Z,30.00
2019-05-17T05:04:49.749Z,33.73
2019-05-17T05:07:22.626Z,35.23
2019-05-17T05:09:52.591Z,36.50
2019-05-17T05:12:23.105Z,39.77
2019-05-17T05:14:53.717Z,40.60
2019-05-17T05:17:24.205Z,43.10
2019-05-17T05:19:54.879Z,43.93
2019-05-17T05:22:25.349Z,50.90
2019-05-17T05:24:56.240Z,51.17
2019-05-17T05:27:26.693Z,54.43
2019-05-17T05:29:57.278Z,59.47
2019-05-17T05:32:27.790Z,58.97
2019-05-17T05:34:58.353Z,59.50
2019-05-17T05:37:28.830Z,62.83
2019-05-17T05:40:02.372Z,62.60
2019-05-17T05:42:33.212Z,60.43
2019-05-17T05:45:03.723Z,65.63
2019-05-17T05:47:34.186Z,62.80
2019-05-17T05:50:06.089Z,66.80
2019-05-17T05:52:36.700Z,69.47
2019-05-17T05:55:07.733Z,70.23
2019-05-17T05:57:38.385Z,67.73
2019-05-17T06:00:13.010Z,69.80
2019-05-17T06:02:43.641Z,72.90
2019-05-17T06:05:17.270Z,68.57
2019-05-17T06:07:47.314Z,68.27
2019-05-17T06:10:21.775Z,64.37
2019-05-17T06:12:52.087Z,67.60
2019-05-17T06:15:23.489Z,63.67
2019-05-17T06:17:54.784Z,62.00
2019-05-17T06:20:26.052Z,59.20
2019-05-17T06:22:58.118Z,56.27
2019-05-17T06:25:28.657Z,51.73
2019-05-17T06:28:02.116Z,50.97
2019-05-17T06:30:32.566Z,43.77
2019-05-17T06:33:03.152Z,38.50
2019-05-17T06:35:33.640Z,34.67
2019-05-17T06:38:04.152Z,30.50
2019-05-17T06:40:34.661Z,27.30
2019-05-17T06:43:05.315Z,22.50
2019-05-17T06:45:35.830Z,21.53
2019-05-17T06:48:06.575Z,19.00
2019-05-17T06:50:37.065Z,16.63
2019-05-17T06:53:07.593Z,16.07
2019-05-17T06:55:42.393Z,15.47
2019-05-17T06:58:13.113Z,14.57
2019-05-17T07:00:43.593Z,13.37
2019-05-17T07:03:14.117Z,14.07
2019-05-17T07:05:46.414Z,12.50
2019-05-17T07:08:16.979Z,12.13
2019-05-17T07:10:47.473Z,12.13
2019-05-17T07:13:19.804Z,12.57
2019-05-17T07:15:51.081Z,11.83
2019-05-17T07:18:21.683Z,12.93
2019-05-17T07:20:52.288Z,11.10
2019-05-17T07:23:22.817Z,10.73
2019-05-17T07:25:53.375Z,10.70
2019-05-17T07:28:24.103Z,10.20
2019-05-17T07:30:55.066Z,10.87
2019-05-17T07:33:26.805Z,10.07
2019-05-17T07:35:59.373Z,10.60
2019-05-17T07:38:30.377Z,9.30
2019-05-17T07:41:01.053Z,9.73
2019-05-17T07:43:31.602Z,9.47
2019-05-17T07:46:02.089Z,9.80
2019-05-17T07:48:32.577Z,9.60
2019-05-17T07:51:03.077Z,9.57
2019-05-17T07:53:33.844Z,8.57
2019-05-17T07:56:16.103Z,8.20
2019-05-17T07:58:46.692Z,9.43
2019-05-17T08:01:17.181Z,9.47
2019-05-17T08:03:49.961Z,9.17
2019-05-17T08:06:21.998Z,8.80
2019-05-17T08:08:52.515Z,8.77
2019-05-17T08:11:23.029Z,8.90
2019-05-17T08:13:53.535Z,9.00
2019-05-17T08:16:25.505Z,9.83
2019-05-17T08:18:56.009Z,8.60
2019-05-17T08:21:26.543Z,9.30
2019-05-17T08:23:59.874Z,8.90
2019-05-17T08:26:32.543Z,9.10
2019-05-17T08:29:03.212Z,9.43
2019-05-17T08:31:33.739Z,9.27
2019-05-17T08:34:04.257Z,8.60
2019-05-17T08:36:34.793Z,9.03
2019-05-17T08:39:07.224Z,8.63
2019-05-17T08:41:40.242Z,8.13
2019-05-17T08:44:10.309Z,8.07
2019-05-17T08:46:41.070Z,8.63
2019-05-17T08:49:12.037Z,7.80
2019-05-17T08:51:42.544Z,7.90
2019-05-17T08:54:13.074Z,8.43
2019-05-17T08:56:43.583Z,8.00
2019-05-17T08:59:14.233Z,8.20
2019-05-17T09:01:44.766Z,7.30
2019-05-17T09:04:15.628Z,7.60
2019-05-17T09:06:46.102Z,7.23
2019-05-17T09:09:16.822Z,6.80
2019-05-17T09:11:50.039Z,7.20
2019-05-17T09:14:21.443Z,6.97
2019-05-17T09:16:52.098Z,6.90
2019-05-17T09:19:22.866Z,7.53
2019-05-17T09:21:53.576Z,6.93
2019-05-17T09:24:24.469Z,6.80
2019-05-17T09:26:55.097Z,5.83
2019-05-17T09:29:25.588Z,5.50
2019-05-17T09:31:56.097Z,5.80
2019-05-17T09:34:26.666Z,5.40
2019-05-17T09:37:05.660Z,5.80
2019-05-17T09:39:36.226Z,5.07
2019-05-17T09:42:06.983Z,5.30
2019-05-17T09:44:40.245Z,5.70
2019-05-17T09:47:10.379Z,5.20
2019-05-17T09:49:40.981Z,4.90
2019-05-17T09:52:11.616Z,5.83
2019-05-17T09:54:45.290Z,5.87
2019-05-17T09:57:14.432Z,4.97
2019-05-17T09:59:44.888Z,4.60
2019-05-17T10:02:15.416Z,4.30
2019-05-17T10:04:47.013Z,3.67
2019-05-17T10:07:17.680Z,4.10
2019-05-17T10:09:50.145Z,4.57
2019-05-17T10:12:20.884Z,3.83
2019-05-17T10:14:51.396Z,3.63
2019-05-17T10:17:21.913Z,3.70
2019-05-17T10:19:52.384Z,4.73
2019-05-17T10:22:22.954Z,4.13
2019-05-17T10:24:53.408Z,3.80
2019-05-17T10:27:23.895Z,3.87
2019-05-17T10:29:54.487Z,3.53
2019-05-17T10:32:25.005Z,3.60
2019-05-17T10:34:55.466Z,3.03
2019-05-17T10:37:26.006Z,3.30
2019-05-17T10:39:56.525Z,3.40
2019-05-17T10:42:27.037Z,2.80
2019-05-17T10:44:59.784Z,2.90
2019-05-17T10:47:30.880Z,2.80
2019-05-17T10:50:01.497Z,2.90
2019-05-17T10:52:32.022Z,2.90
2019-05-17T10:55:02.638Z,2.90
2019-05-17T10:57:33.334Z,2.90
2019-05-17T11:00:05.149Z,3.03
2019-05-17T11:02:35.712Z,2.57
2019-05-17T11:05:07.636Z,2.90
2019-05-17T11:07:38.256Z,2.40
2019-05-17T11:10:11.575Z,2.77
2019-05-17T11:12:41.880Z,2.63
2019-05-17T11:15:13.072Z,2.40
2019-05-17T11:17:43.588Z,2.63
2019-05-17T11:20:14.586Z,2.50
2019-05-17T11:22:45.083Z,2.13
2019-05-17T11:25:15.632Z,2.53
2019-05-17T11:27:46.121Z,2.30
2019-05-17T11:30:17.198Z,2.00
2019-05-17T11:32:48.110Z,2.73
2019-05-17T11:35:18.643Z,2.30
2019-05-17T11:37:49.413Z,2.23
2019-05-17T11:40:20.915Z,1.93
2019-05-17T11:42:51.393Z,2.10
2019-05-17T11:45:27.912Z,1.87
2019-05-17T11:47:54.177Z,2.20
2019-05-17T11:50:24.853Z,2.53
2019-05-17T11:52:55.285Z,2.37
2019-05-17T11:55:25.788Z,2.00
2019-05-17T11:57:56.240Z,2.13
2019-05-17T12:00:27.442Z,2.80
2019-05-17T12:02:58.016Z,2.30
2019-05-17T12:05:28.708Z,2.23
2019-05-17T12:07:59.384Z,2.07
2019-05-17T12:10:30.039Z,1.93
2019-05-17T12:13:00.606Z,2.60
2019-05-17T12:15:44.544Z,2.00
2019-05-17T12:18:03.753Z,2.20
2019-05-17T12:20:34.288Z,1.93
2019-05-17T12:23:04.860Z,2.10
2019-05-17T12:25:35.652Z,1.90
2019-05-17T12:28:06.670Z,2.10
2019-05-17T12:30:38.708Z,2.00
2019-05-17T12:33:09.219Z,2.10
2019-05-17T12:35:40.119Z,1.40
2019-05-17T12:38:11.372Z,1.43
2019-05-17T12:40:41.996Z,1.53
2019-05-17T12:43:12.647Z,1.40
2019-05-17T12:45:43.142Z,1.83
2019-05-17T12:48:13.650Z,1.63
2019-05-17T12:50:44.621Z,1.60
2019-05-17T12:53:15.186Z,1.50
2019-05-17T12:55:45.665Z,1.57
2019-05-17T12:58:17.915Z,1.50
2019-05-17T13:00:49.840Z,1.50
2019-05-17T13:03:20.466Z,1.60
2019-05-17T13:05:52.561Z,1.63
2019-05-17T13:08:23.037Z,1.43
2019-05-17T13:10:53.535Z,1.77
2019-05-17T13:13:24.023Z,1.50
2019-05-17T13:15:54.484Z,1.83
2019-05-17T13:18:24.932Z,1.30
2019-05-17T13:20:57.693Z,1.47
2019-05-17T13:23:28.326Z,1.40
2019-05-17T13:25:58.865Z,1.40
2019-05-17T13:28:29.383Z,1.37
2019-05-17T13:31:00.222Z,1.37
2019-05-17T13:33:41.851Z,1.23
2019-05-17T13:36:12.492Z,1.07
2019-05-17T13:38:43.015Z,1.10
2019-05-17T13:41:14.374Z,1.27
2019-05-17T13:43:44.945Z,1.10
2019-05-17T13:46:15.420Z,1.07
2019-05-17T13:48:46.975Z,1.20
2019-05-17T13:51:17.569Z,1.10
2019-05-17T13:53:48.690Z,1.47
2019-05-17T13:56:19.301Z,1.10
2019-05-17T13:58:51.019Z,1.10
2019-05-17T14:01:23.143Z,0.90
2019-05-17T14:03:54.024Z,1.10
2019-05-17T14:06:24.614Z,0.80
2019-05-17T14:08:55.123Z,1.00
2019-05-17T14:11:26.601Z,1.07
2019-05-17T14:13:57.273Z,1.00
2019-05-17T14:16:27.742Z,1.17
2019-05-17T14:18:58.283Z,1.20
2019-05-17T14:21:29.041Z,1.00
2019-05-17T14:24:01.683Z,1.00
2019-05-17T14:26:32.660Z,0.80
2019-05-17T14:29:05.955Z,0.90
2019-05-17T14:31:36.465Z,1.00
2019-05-17T14:34:12.386Z,1.07
2019-05-17T14:36:42.916Z,1.10
2019-05-17T14:39:14.745Z,1.10
2019-05-17T14:41:45.460Z,1.20
2019-05-17T14:44:15.953Z,1.00
2019-05-17T14:46:46.412Z,1.30
2019-05-17T14:49:17.911Z,1.27
2019-05-17T14:51:48.409Z,1.20
2019-05-17T14:54:19.254Z,1.00
2019-05-17T14:56:51.226Z,1.20
2019-05-17T14:59:22.960Z,1.23
2019-05-17T15:01:53.473Z,1.40
2019-05-17T15:04:24.490Z,0.93
2019-05-17T15:06:55.104Z,1.40
2019-05-17T15:09:25.612Z,1.10
2019-05-17T15:11:56.505Z,1.50
2019-05-17T15:14:29.555Z,1.27
2019-05-17T15:17:03.054Z,1.10
2019-05-17T15:19:35.108Z,1.20
2019-05-17T15:22:06.635Z,0.87
2019-05-17T15:24:37.227Z,1.00
2019-05-17T15:27:07.732Z,1.43
2019-05-17T15:29:38.325Z,1.00
2019-05-17T15:32:08.978Z,1.40
2019-05-17T15:34:39.852Z,1.10
2019-05-17T15:37:11.497Z,1.07
2019-05-17T15:39:42.922Z,1.30
2019-05-17T15:42:13.452Z,1.20
2019-05-17T15:44:44.004Z,1.30
2019-05-17T15:47:14.511Z,1.20
2019-05-17T15:49:46.495Z,1.13
2019-05-17T15:52:17.004Z,1.27
2019-05-17T15:54:48.659Z,1.00
2019-05-17T15:57:20.336Z,1.20
2019-05-17T15:59:50.892Z,0.90
2019-05-17T16:02:21.422Z,0.90
2019-05-17T16:04:53.086Z,1.03
2019-05-17T16:07:23.581Z,1.10
2019-05-17T16:09:54.115Z,1.17
2019-05-17T16:12:24.644Z,1.00
2019-05-17T16:14:55.195Z,1.27
2019-05-17T16:17:25.698Z,1.30
2019-05-17T16:19:56.244Z,1.30
2019-05-17T16:22:27.198Z,1.40
2019-05-17T16:24:57.718Z,1.60
2019-05-17T16:27:28.284Z,1.10
2019-05-17T16:29:58.883Z,1.10
2019-05-17T16:32:29.414Z,1.50
2019-05-17T16:35:00.225Z,1.03
2019-05-17T16:37:32.152Z,1.10
2019-05-17T16:40:02.618Z,1.30
2019-05-17T16:42:33.438Z,1.30
2019-05-17T16:45:04.068Z,1.00
2019-05-17T16:47:34.545Z,1.20
2019-05-17T16:50:05.791Z,1.13
2019-05-17T16:52:37.403Z,1.60
2019-05-17T16:55:08.761Z,1.30
2019-05-17T16:57:39.541Z,1.20
2019-05-17T17:00:33.046Z,1.20
2019-05-17T17:03:04.270Z,1.07
2019-05-17T17:05:35.357Z,1.10
2019-05-17T17:08:06.797Z,1.03
2019-05-17T17:10:37.411Z,1.10
2019-05-17T17:13:08.176Z,1.33
2019-05-17T17:15:38.776Z,1.17
2019-05-17T17:18:09.373Z,1.20
2019-05-17T17:20:40.620Z,1.10
2019-05-17T17:23:11.825Z,1.30
2019-05-17T17:25:42.376Z,1.00
2019-05-17T17:28:12.857Z,1.13
2019-05-17T17:30:43.344Z,1.20
2019-05-17T17:33:13.873Z,1.10
2019-05-17T17:35:46.436Z,1.20
2019-05-17T17:38:16.923Z,1.07
2019-05-17T17:40:48.455Z,1.40
2019-05-17T17:43:18.984Z,1.23
2019-05-17T17:45:50.362Z,1.10
2019-05-17T17:48:22.902Z,1.10
2019-05-17T17:50:54.515Z,1.37
2019-05-17T17:53:25.035Z,1.40
2019-05-17T17:55:57.643Z,1.37
2019-05-17T17:58:29.369Z,1.37
2019-05-17T18:00:59.973Z,1.03
2019-05-17T18:03:30.965Z,1.10
2019-05-17T18:06:03.209Z,1.20
2019-05-17T18:08:34.794Z,1.20
2019-05-17T18:11:05.801Z,1.20
2019-05-17T18:13:37.669Z,1.30
2019-05-17T18:16:08.428Z,1.20
2019-05-17T18:18:40.591Z,1.33
2019-05-17T18:21:11.446Z,1.37
2019-05-17T18:23:50.712Z,1.40
2019-05-17T18:26:28.774Z,1.10
2019-05-17T18:29:02.302Z,1.23
2019-05-17T18:31:33.624Z,1.20
2019-05-17T18:34:49.866Z,1.40
2019-05-17T18:37:28.595Z,1.27
2019-05-17T18:40:06.928Z,1.13
2019-05-17T18:42:37.593Z,0.90
2019-05-17T18:45:08.634Z,1.50
2019-05-17T18:47:50.244Z,1.20
2019-05-17T18:50:20.139Z,1.47
2019-05-17T18:52:50.854Z,1.20
2019-05-17T18:55:22.055Z,1.20
2019-05-17T18:57:52.753Z,1.10
2019-05-17T19:00:25.360Z,1.10
2019-05-17T19:02:56.139Z,1.57
2019-05-17T19:05:28.080Z,1.50
2019-05-17T19:07:59.047Z,1.70
2019-05-17T19:10:31.129Z,1.60
2019-05-17T19:13:03.398Z,1.40
2019-05-17T19:15:37.430Z,1.47
2019-05-17T19:18:08.823Z,1.60
2019-05-17T19:20:42.298Z,1.30
2019-05-17T19:23:13.707Z,1.40
2019-05-17T19:25:47.288Z,1.60
2019-05-17T19:28:19.105Z,1.70
2019-05-17T19:30:50.766Z,2.03
2019-05-17T19:33:21.842Z,2.10
2019-05-17T19:35:58.489Z,1.80
2019-05-17T19:38:30.693Z,2.03
2019-05-17T19:41:08.863Z,2.10
2019-05-17T19:43:46.214Z,2.00
2019-05-17T19:46:17.231Z,2.00
2019-05-17T19:49:11.032Z,1.70
2019-05-17T19:51:44.687Z,1.70
2019-05-17T19:54:16.901Z,1.77
2019-05-17T19:56:51.075Z,1.70
2019-05-17T19:59:25.747Z,1.80
2019-05-17T20:01:56.304Z,2.20
2019-05-17T20:04:28.454Z,2.17
2019-05-17T20:07:01.099Z,2.17
2019-05-17T20:09:32.012Z,1.90
2019-05-17T20:12:04.436Z,1.93
2019-05-17T20:14:35.440Z,1.80
2019-05-17T20:17:07.860Z,1.97
2019-05-17T20:19:38.787Z,1.70
2019-05-17T20:22:09.478Z,2.03
2019-05-17T20:24:40.027Z,2.30
2019-05-17T20:27:11.525Z,2.63
2019-05-17T20:30:14.849Z,2.00
2019-05-17T20:32:46.100Z,1.90
2019-05-17T20:35:24.111Z,2.00
2019-05-17T20:37:54.739Z,2.10
2019-05-17T20:40:25.756Z,1.93
2019-05-17T20:42:56.643Z,2.20
2019-05-17T20:45:34.614Z,2.33
2019-05-17T20:48:05.581Z,2.33
2019-05-17T20:50:36.213Z,2.37
2019-05-17T20:53:24.560Z,2.30
2019-05-17T20:55:56.803Z,2.50
2019-05-17T20:58:28.519Z,2.37
2019-05-17T21:01:01.340Z,2.20
2019-05-17T21:03:31.942Z,2.60
2019-05-17T21:06:21.500Z,2.40
2019-05-17T21:08:54.686Z,2.50
2019-05-17T21:11:27.541Z,2.80
2019-05-17T21:17:51.144Z,2.70
2019-05-17T21:20:24.690Z,3.30
2019-05-17T21:22:58.037Z,3.60
2019-05-17T21:25:44.338Z,3.13
2019-05-17T21:28:14.797Z,3.47
2019-05-17T21:30:45.324Z,3.30
2019-05-17T21:33:15.925Z,2.80
2019-05-17T21:35:50.022Z,2.90
2019-05-17T21:38:30.051Z,3.37
2019-05-17T21:41:00.759Z,3.23
2019-05-17T21:43:31.320Z,3.40
2019-05-17T21:46:06.013Z,3.30
2019-05-17T21:48:36.513Z,3.20
2019-05-17T21:51:09.085Z,2.97
2019-05-17T21:53:39.599Z,2.30
2019-05-17T21:56:13.393Z,2.20
2019-05-17T21:58:43.878Z,2.33
2019-05-17T22:01:21.267Z,2.50
2019-05-17T22:04:02.485Z,2.40
2019-05-17T22:06:53.128Z,2.50
2019-05-17T22:09:23.926Z,2.70
2019-05-17T22:11:56.441Z,3.53
2019-05-17T22:14:27.019Z,3.37
2019-05-17T22:16:59.603Z,3.60
2019-05-17T22:19:33.665Z,3.50
2019-05-17T22:22:04.322Z,3.53
2019-05-17T22:24:42.442Z,2.93
2019-05-17T22:27:13.181Z,2.60
2019-05-17T22:29:45.567Z,2.40
2019-05-17T22:32:21.775Z,2.60
2019-05-17T22:34:52.375Z,2.70
2019-05-17T22:37:23.025Z,3.00
2019-05-17T22:40:02.302Z,3.77
2019-05-17T22:42:33.001Z,3.90
2019-05-17T22:45:08.221Z,4.87
2019-05-17T22:47:44.466Z,4.90
2019-05-17T22:50:16.498Z,5.80
2019-05-17T22:52:47.312Z,5.67
2019-05-17T22:55:17.810Z,4.83
2019-05-17T22:57:48.698Z,3.60
2019-05-17T23:00:20.532Z,2.47
2019-05-17T23:02:51.131Z,2.83
2019-05-17T23:05:25.892Z,2.50
2019-05-17T23:07:54.274Z,3.00
2019-05-17T23:10:24.733Z,2.90
2019-05-17T23:12:55.453Z,2.97
2019-05-17T23:15:28.196Z,2.60
2019-05-17T23:17:58.725Z,3.10
2019-05-17T23:20:30.481Z,2.80
2019-05-17T23:23:01.039Z,2.80
2019-05-17T23:25:31.869Z,2.73
2019-05-17T23:28:02.520Z,3.40
2019-05-17T23:30:33.346Z,3.10
2019-05-17T23:33:03.874Z,3.30
2019-05-17T23:35:34.383Z,3.17
2019-05-17T23:38:05.073Z,3.23
2019-05-17T23:40:35.563Z,2.90
2019-05-17T23:43:06.018Z,2.83
2019-05-17T23:45:37.514Z,3.53
2019-05-17T23:48:08.174Z,3.23
2019-05-17T23:50:39.104Z,2.90
2019-05-17T23:53:09.766Z,3.13
2019-05-17T23:55:40.379Z,4.03
2019-05-17T23:58:14.038Z,5.97
